Accueil
METAR-TAF:

METAR-TAF

Aéroports :

Sabadell, Espagne

latitude: 41-31N, longitude: 002-06E, altitude: 250 m

Observation

Le bulletin a été fait il y a 18 minutes, à 10:00 UTC
Vent 4 kt de est/sud-est, variant entre nord-est et sud
Température 13°C
Humidité 41%
Pression 1017 hPa
Visibilité 10 km ou plus
Quelques nuages à une hauteur de 4500 ft

METAR: LELL 281000Z 12004KT 040V190 9999 FEW045 13/00 Q1017

Heure: 12:18 (10:18 UTC)

Prévision

Le bulletin a été fait il y a 2 heures et 18 minutes, à 08:00 UTC
Prévision valable du 28 à 09 UTC au 29 à 09 UTC
Vent 4 kt de direction variable
Visibilité 10 km ou plus
Quelques nuages à une hauteur de 2500 ft
Temporairement
du 28 à 12 UTC au 28 à 15 UTC
Vent 10 kt de sud/sud-est

TAF: LELL 280800Z 2809/2909 VRB04KT 9999 FEW025 TX17/2813Z TN05/2906Z TEMPO 2812/2815 16010KT

Observations et prévisions météorologiques de plus de 4000 aéroports (messages METAR et TAF).

Les stations disponibles sont représentées par des disques jaunes et rouges sur la carte.

Passer la souris dessus pour voir le nom de la station.

Cliquer dessus pour voir les observations et prévisions météorologiques.

Pour changer de carte: cliquez sur les boutons verts avec une croix noire pour zoomer, sur le bouton vert avec un tiret pour effectuer un zoom arrière, ou sur les flèches vertes pour les cartes adjacentes.


METAR-TAF: